createdAt,value
2018-08-17T00:00:52.551Z,0.00
2018-08-17T00:01:52.532Z,0.00
2018-08-17T00:02:52.511Z,0.00
2018-08-17T00:03:52.483Z,0.00
2018-08-17T00:04:52.454Z,0.00
2018-08-17T00:05:52.433Z,0.00
2018-08-17T00:06:52.404Z,0.00
2018-08-17T00:07:52.380Z,0.00
2018-08-17T00:08:52.343Z,0.00
2018-08-17T00:09:52.320Z,0.00
2018-08-17T00:10:52.308Z,0.00
2018-08-17T00:11:52.283Z,0.00
2018-08-17T00:12:52.259Z,0.00
2018-08-17T00:13:52.244Z,0.00
2018-08-17T00:14:52.198Z,0.00
2018-08-17T00:15:52.169Z,0.00
2018-08-17T00:16:52.143Z,0.00
2018-08-17T00:17:52.141Z,0.00
2018-08-17T00:18:52.117Z,0.00
2018-08-17T00:19:52.092Z,0.00
2018-08-17T00:20:52.073Z,0.00
2018-08-17T00:21:52.042Z,0.00
2018-08-17T00:22:52.019Z,0.00
2018-08-17T00:23:51.991Z,0.00
2018-08-17T00:24:51.966Z,0.00
2018-08-17T00:25:51.950Z,0.00
2018-08-17T00:26:51.905Z,0.00
2018-08-17T00:27:51.899Z,0.00
2018-08-17T00:28:51.858Z,0.00
2018-08-17T00:29:51.848Z,0.00
2018-08-17T00:30:51.823Z,0.00
2018-08-17T00:31:51.782Z,0.00
2018-08-17T00:32:51.768Z,0.00
2018-08-17T00:33:51.726Z,0.00
2018-08-17T00:34:51.721Z,0.00
2018-08-17T00:35:51.683Z,0.00
2018-08-17T00:36:51.675Z,0.00
2018-08-17T00:37:51.630Z,0.00
2018-08-17T00:38:51.622Z,0.00
2018-08-17T00:39:51.584Z,0.00
2018-08-17T00:40:51.577Z,0.00
2018-08-17T00:41:51.549Z,0.00
2018-08-17T00:42:51.525Z,0.00
2018-08-17T00:43:51.490Z,0.00
2018-08-17T00:44:51.480Z,0.00
2018-08-17T00:45:51.455Z,0.00
2018-08-17T00:46:51.424Z,0.00
2018-08-17T00:47:51.406Z,0.00
2018-08-17T00:48:51.355Z,0.00
2018-08-17T00:49:51.336Z,0.00
2018-08-17T00:50:51.328Z,0.00
2018-08-17T00:51:51.305Z,0.00
2018-08-17T00:52:51.285Z,0.00
2018-08-17T00:53:51.253Z,0.00
2018-08-17T00:54:51.232Z,0.00
2018-08-17T00:55:51.210Z,0.00
2018-08-17T00:56:51.189Z,0.00
2018-08-17T00:57:51.163Z,0.00
2018-08-17T00:58:51.137Z,0.00
2018-08-17T00:59:51.114Z,0.00
2018-08-17T01:00:51.080Z,0.00
2018-08-17T01:01:51.044Z,0.00
2018-08-17T01:02:51.043Z,0.00
2018-08-17T01:03:51.009Z,0.00
2018-08-17T01:04:50.986Z,0.00
2018-08-17T01:05:50.946Z,0.00
2018-08-17T01:06:50.939Z,0.00
2018-08-17T01:07:50.917Z,0.00
2018-08-17T01:08:50.888Z,0.00
2018-08-17T01:09:50.868Z,0.00
2018-08-17T01:10:50.833Z,0.00
2018-08-17T01:11:50.818Z,0.00
2018-08-17T01:12:50.781Z,0.00
2018-08-17T01:13:50.771Z,0.00
2018-08-17T01:14:50.747Z,0.00
2018-08-17T01:15:50.718Z,0.00
2018-08-17T01:16:50.696Z,0.00
2018-08-17T01:17:50.667Z,0.00
2018-08-17T01:18:50.641Z,0.00
2018-08-17T01:19:50.625Z,0.00
2018-08-17T01:20:50.602Z,0.00
2018-08-17T01:21:50.574Z,0.00
2018-08-17T01:22:50.549Z,0.00
2018-08-17T01:23:50.523Z,0.00
2018-08-17T01:24:50.497Z,0.00
2018-08-17T01:25:50.475Z,0.00
2018-08-17T01:26:50.457Z,0.00
2018-08-17T01:27:50.411Z,0.00
2018-08-17T01:28:50.400Z,0.00
2018-08-17T01:29:50.359Z,0.00
2018-08-17T01:30:50.354Z,0.00
2018-08-17T01:31:50.313Z,0.00
2018-08-17T01:32:50.300Z,0.00
2018-08-17T01:33:50.283Z,0.00
2018-08-17T01:34:50.261Z,0.00
2018-08-17T01:35:50.240Z,0.00
2018-08-17T01:36:50.212Z,0.00
2018-08-17T01:37:50.189Z,0.00
2018-08-17T01:38:50.165Z,0.00
2018-08-17T01:39:50.187Z,0.00
2018-08-17T01:40:50.088Z,0.00
2018-08-17T01:41:50.067Z,0.00
2018-08-17T01:42:50.057Z,0.00
2018-08-17T01:43:50.040Z,0.00
2018-08-17T01:44:49.988Z,0.00
2018-08-17T01:45:49.962Z,0.00
2018-08-17T01:46:49.965Z,0.00
2018-08-17T01:47:49.938Z,0.00
2018-08-17T01:48:49.891Z,0.00
2018-08-17T01:49:49.889Z,0.00
2018-08-17T01:50:49.857Z,0.00
2018-08-17T01:51:49.836Z,0.00
2018-08-17T01:52:49.816Z,0.00
2018-08-17T01:53:49.789Z,0.00
2018-08-17T01:54:49.769Z,0.00
2018-08-17T01:55:49.726Z,0.00
2018-08-17T01:56:49.696Z,0.00
2018-08-17T01:57:49.690Z,0.00
2018-08-17T01:58:49.664Z,0.00
2018-08-17T01:59:49.641Z,0.00
2018-08-17T02:00:49.617Z,0.00
2018-08-17T02:01:49.596Z,0.00
2018-08-17T02:02:49.568Z,0.00
2018-08-17T02:03:49.522Z,0.00
2018-08-17T02:04:49.496Z,0.00
2018-08-17T02:05:49.497Z,0.00
2018-08-17T02:06:49.471Z,0.00
2018-08-17T02:07:49.449Z,0.00
2018-08-17T02:08:49.418Z,0.00
2018-08-17T02:09:49.548Z,0.00
2018-08-17T02:10:49.374Z,0.00
2018-08-17T02:11:49.342Z,0.00
2018-08-17T02:12:49.320Z,0.00
2018-08-17T02:13:49.293Z,0.00
2018-08-17T02:14:49.400Z,0.00
2018-08-17T02:15:49.252Z,0.00
2018-08-17T02:16:49.224Z,0.00
2018-08-17T02:17:49.197Z,0.00
2018-08-17T02:18:49.174Z,0.00
2018-08-17T02:19:49.147Z,0.00
2018-08-17T02:20:49.125Z,0.00
2018-08-17T02:21:49.101Z,0.00
2018-08-17T02:22:49.078Z,0.00
2018-08-17T02:23:49.052Z,0.00
2018-08-17T02:24:49.027Z,0.00
2018-08-17T02:25:48.984Z,0.00
2018-08-17T02:26:48.977Z,0.00
2018-08-17T02:27:48.956Z,0.00
2018-08-17T02:28:48.924Z,0.00
2018-08-17T02:29:48.906Z,0.00
2018-08-17T02:30:48.885Z,0.00
2018-08-17T02:31:48.835Z,0.00
2018-08-17T02:32:48.833Z,0.00
2018-08-17T02:33:48.804Z,0.00
2018-08-17T02:34:48.781Z,0.00
2018-08-17T02:35:48.756Z,0.00
2018-08-17T02:36:48.735Z,0.00
2018-08-17T02:37:48.716Z,0.00
2018-08-17T02:38:48.677Z,0.00
2018-08-17T02:39:48.659Z,0.00
2018-08-17T02:40:48.638Z,0.00
2018-08-17T02:41:48.613Z,0.00
2018-08-17T02:42:48.582Z,0.00
2018-08-17T02:43:48.559Z,0.00
2018-08-17T02:44:48.533Z,0.00
2018-08-17T02:45:48.514Z,0.00
2018-08-17T02:46:48.491Z,0.00
2018-08-17T02:47:48.462Z,0.00
2018-08-17T02:48:48.434Z,0.00
2018-08-17T02:49:48.417Z,0.00
2018-08-17T02:50:48.389Z,0.00
2018-08-17T02:51:48.362Z,0.00
2018-08-17T02:52:48.320Z,0.00
2018-08-17T02:53:48.315Z,0.00
2018-08-17T02:54:48.268Z,0.00
2018-08-17T02:55:48.263Z,0.00
2018-08-17T02:56:48.243Z,0.00
2018-08-17T02:57:48.210Z,0.00
2018-08-17T02:58:48.192Z,0.00
2018-08-17T02:59:48.169Z,0.00
2018-08-17T03:00:48.140Z,0.00
2018-08-17T03:01:48.120Z,0.00
2018-08-17T03:02:48.093Z,0.00
2018-08-17T03:03:48.071Z,0.00
2018-08-17T03:04:48.051Z,0.00
2018-08-17T03:05:48.029Z,0.00
2018-08-17T03:06:47.988Z,0.00
2018-08-17T03:07:47.967Z,0.00
2018-08-17T03:08:47.947Z,0.00
2018-08-17T03:09:47.923Z,0.00
2018-08-17T03:10:47.894Z,0.00
2018-08-17T03:11:47.853Z,0.00
2018-08-17T03:12:47.842Z,0.00
2018-08-17T03:13:47.822Z,0.00
2018-08-17T03:14:47.796Z,0.00
2018-08-17T03:15:47.770Z,0.00
2018-08-17T03:16:47.727Z,0.00
2018-08-17T03:17:47.719Z,0.00
2018-08-17T03:18:47.696Z,0.00
2018-08-17T03:19:47.674Z,0.00
2018-08-17T03:20:47.628Z,0.00
2018-08-17T03:21:47.623Z,0.00
2018-08-17T03:22:47.597Z,0.00
2018-08-17T03:23:47.575Z,0.00
2018-08-17T03:24:47.527Z,0.00
2018-08-17T03:25:47.527Z,0.00
2018-08-17T03:26:47.498Z,0.00
2018-08-17T03:27:47.475Z,0.00
2018-08-17T03:28:47.452Z,0.00
2018-08-17T03:29:47.424Z,0.00
2018-08-17T03:30:47.404Z,0.00
2018-08-17T03:31:47.372Z,0.00
2018-08-17T03:32:47.346Z,0.00
2018-08-17T03:33:47.328Z,0.00
2018-08-17T03:34:47.304Z,0.00
2018-08-17T03:35:47.277Z,0.00
2018-08-17T03:36:47.252Z,0.00
2018-08-17T03:37:47.231Z,0.00
2018-08-17T03:38:47.211Z,0.00
2018-08-17T03:39:47.182Z,0.00
2018-08-17T03:40:47.153Z,0.00
2018-08-17T03:41:47.127Z,0.00
2018-08-17T03:42:47.111Z,0.00
2018-08-17T03:43:47.061Z,0.00
2018-08-17T03:44:47.050Z,0.00
2018-08-17T03:45:47.030Z,0.00
2018-08-17T03:46:47.009Z,0.00
2018-08-17T03:47:46.983Z,0.00
2018-08-17T03:48:46.958Z,0.00
2018-08-17T03:49:46.929Z,0.00
2018-08-17T03:50:46.908Z,0.00
2018-08-17T03:51:46.885Z,0.00
2018-08-17T03:52:46.856Z,0.00
2018-08-17T03:53:46.840Z,0.00
2018-08-17T03:54:46.816Z,0.00
2018-08-17T03:55:46.783Z,0.00
2018-08-17T03:56:46.761Z,0.00
2018-08-17T03:57:46.740Z,0.00
2018-08-17T03:58:46.719Z,0.00
2018-08-17T03:59:46.689Z,0.00
2018-08-17T04:00:46.670Z,0.00
2018-08-17T04:01:46.642Z,0.00
2018-08-17T04:02:46.624Z,0.00
2018-08-17T04:03:46.592Z,0.00
2018-08-17T04:04:46.567Z,0.00
2018-08-17T04:05:46.540Z,0.00
2018-08-17T04:06:46.499Z,0.00
2018-08-17T04:07:46.506Z,0.00
2018-08-17T04:08:46.476Z,0.00
2018-08-17T04:09:46.433Z,0.00
2018-08-17T04:10:46.419Z,0.00
2018-08-17T04:11:46.396Z,0.00
2018-08-17T04:12:46.376Z,0.00
2018-08-17T04:13:46.329Z,0.00
2018-08-17T04:14:46.323Z,0.00
2018-08-17T04:15:46.302Z,0.00
2018-08-17T04:16:46.276Z,0.00
2018-08-17T04:17:46.253Z,0.00
2018-08-17T04:18:46.226Z,0.00
2018-08-17T04:19:46.205Z,0.00
2018-08-17T04:20:46.176Z,0.00
2018-08-17T04:21:46.153Z,0.00
2018-08-17T04:22:46.132Z,0.00
2018-08-17T04:23:46.159Z,0.00
2018-08-17T04:24:46.081Z,0.00
2018-08-17T04:25:46.051Z,0.00
2018-08-17T04:26:46.022Z,0.00
2018-08-17T04:27:46.014Z,0.00
2018-08-17T04:28:45.979Z,0.00
2018-08-17T04:29:45.953Z,0.00
2018-08-17T04:30:45.936Z,0.00
2018-08-17T04:31:45.890Z,0.00
2018-08-17T04:32:45.886Z,0.00
2018-08-17T04:33:45.864Z,0.00
2018-08-17T04:34:45.835Z,0.00
2018-08-17T04:35:45.809Z,0.00
2018-08-17T04:36:45.773Z,0.00
2018-08-17T04:37:45.765Z,0.00
2018-08-17T04:38:45.738Z,0.00
2018-08-17T04:39:45.718Z,0.00
2018-08-17T04:40:45.686Z,0.00
2018-08-17T04:41:45.660Z,0.00
2018-08-17T04:42:45.639Z,0.00
2018-08-17T04:43:45.715Z,0.00
2018-08-17T04:44:45.593Z,0.00
2018-08-17T04:45:45.566Z,0.00
2018-08-17T04:46:45.549Z,0.00
2018-08-17T04:47:45.519Z,0.00
2018-08-17T04:48:45.492Z,0.00
2018-08-17T04:49:45.451Z,0.00
2018-08-17T04:50:45.446Z,0.00
2018-08-17T04:51:45.422Z,0.00
2018-08-17T04:52:45.384Z,0.00
2018-08-17T04:53:45.373Z,0.00
2018-08-17T04:54:45.333Z,0.00
2018-08-17T04:55:45.326Z,0.00
2018-08-17T04:56:45.344Z,0.00
2018-08-17T04:57:45.272Z,0.00
2018-08-17T04:58:45.257Z,0.00
2018-08-17T04:59:45.223Z,0.00
2018-08-17T05:00:45.202Z,0.00
2018-08-17T05:01:45.180Z,0.00
2018-08-17T05:02:45.137Z,0.00
2018-08-17T05:03:45.135Z,0.00
2018-08-17T05:04:45.106Z,0.00
2018-08-17T05:05:45.074Z,0.00
2018-08-17T05:06:45.056Z,0.00
2018-08-17T05:07:45.027Z,0.00
2018-08-17T05:08:45.003Z,0.00
2018-08-17T05:09:44.987Z,0.00
2018-08-17T05:10:44.959Z,0.00
2018-08-17T05:11:44.937Z,0.00
2018-08-17T05:12:44.908Z,0.00
2018-08-17T05:13:44.881Z,0.00
2018-08-17T05:14:44.858Z,0.00
2018-08-17T05:15:44.837Z,0.00
2018-08-17T05:16:44.811Z,0.00
2018-08-17T05:17:44.788Z,0.00
2018-08-17T05:18:44.761Z,0.00
2018-08-17T05:19:44.732Z,0.00
2018-08-17T05:20:44.713Z,0.00
2018-08-17T05:21:44.691Z,0.00
2018-08-17T05:22:44.660Z,0.00
2018-08-17T05:23:44.614Z,0.00
2018-08-17T05:24:44.611Z,0.00
2018-08-17T05:25:44.590Z,0.00
2018-08-17T05:26:44.564Z,0.00
2018-08-17T05:27:44.526Z,0.00
2018-08-17T05:28:44.499Z,0.00
2018-08-17T05:29:44.491Z,0.00
2018-08-17T05:30:44.467Z,0.00
2018-08-17T05:31:44.440Z,0.00
2018-08-17T05:32:44.411Z,0.00
2018-08-17T05:33:44.395Z,0.00
2018-08-17T05:34:44.363Z,0.00
2018-08-17T05:35:44.325Z,0.00
2018-08-17T05:36:44.316Z,0.00
2018-08-17T05:37:44.296Z,0.00
2018-08-17T05:38:44.252Z,0.00
2018-08-17T05:39:44.252Z,0.00
2018-08-17T05:40:44.220Z,0.00
2018-08-17T05:41:44.192Z,0.00
2018-08-17T05:42:44.147Z,0.00
2018-08-17T05:43:44.147Z,0.00
2018-08-17T05:44:44.125Z,0.00
2018-08-17T05:45:44.094Z,0.00
2018-08-17T05:46:44.076Z,0.00
2018-08-17T05:47:44.050Z,0.00
2018-08-17T05:48:44.019Z,0.00
2018-08-17T05:49:43.988Z,0.00
2018-08-17T05:50:43.977Z,0.00
2018-08-17T05:51:43.932Z,0.00
2018-08-17T05:52:43.926Z,0.00
2018-08-17T05:53:43.901Z,0.00
2018-08-17T05:54:43.873Z,0.00
2018-08-17T05:55:43.852Z,0.00
2018-08-17T05:56:43.853Z,0.00
2018-08-17T05:57:43.804Z,0.00
2018-08-17T05:58:43.781Z,0.00
2018-08-17T05:59:43.755Z,0.00
2018-08-17T06:00:43.728Z,0.00
2018-08-17T06:01:43.708Z,0.00
2018-08-17T06:02:43.687Z,0.00
2018-08-17T06:03:43.660Z,0.00
2018-08-17T06:04:43.629Z,0.00
2018-08-17T06:05:43.609Z,0.00
2018-08-17T06:06:43.582Z,0.00
2018-08-17T06:07:43.561Z,0.00
2018-08-17T06:08:43.538Z,0.00
2018-08-17T06:09:43.511Z,0.00
2018-08-17T06:10:43.462Z,0.00
2018-08-17T06:11:43.533Z,0.00
2018-08-17T06:12:43.439Z,0.00
2018-08-17T06:13:43.408Z,0.00
2018-08-17T06:14:43.387Z,0.00
2018-08-17T06:15:43.360Z,0.00
2018-08-17T06:16:43.335Z,0.00
2018-08-17T06:17:43.314Z,0.00
2018-08-17T06:18:43.286Z,0.00
2018-08-17T06:19:43.262Z,0.00
2018-08-17T06:20:43.222Z,0.00
2018-08-17T06:21:43.212Z,0.00
2018-08-17T06:22:43.187Z,0.00
2018-08-17T06:23:43.164Z,0.00
2018-08-17T06:24:43.138Z,0.00
2018-08-17T06:25:43.112Z,0.00
2018-08-17T06:26:43.093Z,0.00
2018-08-17T06:27:43.065Z,0.00
2018-08-17T06:28:43.048Z,0.00
2018-08-17T06:29:43.019Z,0.00
2018-08-17T06:30:42.990Z,0.00
2018-08-17T06:31:43.045Z,0.00
2018-08-17T06:32:42.948Z,0.00
2018-08-17T06:33:42.907Z,0.00
2018-08-17T06:34:42.892Z,0.00
2018-08-17T06:35:42.872Z,0.00
2018-08-17T06:36:42.839Z,0.00
2018-08-17T06:37:42.806Z,0.00
2018-08-17T06:38:42.800Z,0.00
2018-08-17T06:39:42.771Z,0.00
2018-08-17T06:40:42.728Z,0.00
2018-08-17T06:41:42.724Z,0.00
2018-08-17T06:42:42.680Z,0.00
2018-08-17T06:43:42.679Z,0.00
2018-08-17T06:44:42.649Z,0.00
2018-08-17T06:45:42.608Z,0.00
2018-08-17T06:46:42.601Z,0.00
2018-08-17T06:47:42.573Z,0.00
2018-08-17T06:48:42.553Z,0.00
2018-08-17T06:49:42.527Z,0.00
2018-08-17T06:50:42.538Z,0.00
2018-08-17T06:51:42.478Z,0.00
2018-08-17T06:52:42.454Z,0.00
2018-08-17T06:53:42.414Z,0.00
2018-08-17T06:54:42.404Z,0.00
2018-08-17T06:55:42.384Z,0.00
2018-08-17T06:56:42.358Z,0.00
2018-08-17T06:57:42.336Z,0.00
2018-08-17T06:58:42.309Z,0.00
2018-08-17T06:59:42.286Z,0.00
2018-08-17T07:00:42.258Z,0.00
2018-08-17T07:01:42.235Z,0.00
2018-08-17T07:02:42.333Z,0.00
2018-08-17T07:03:42.168Z,0.00
2018-08-17T07:04:42.166Z,0.00
2018-08-17T07:05:42.140Z,0.00
2018-08-17T07:06:42.112Z,0.00
2018-08-17T07:07:42.072Z,0.00
2018-08-17T07:08:42.087Z,0.00
2018-08-17T07:09:42.018Z,0.00
2018-08-17T07:10:42.015Z,0.00
2018-08-17T07:11:41.992Z,0.00
2018-08-17T07:12:41.969Z,0.00
2018-08-17T07:13:41.938Z,0.00
2018-08-17T07:14:41.915Z,0.00
2018-08-17T07:15:41.899Z,0.00
2018-08-17T07:16:41.927Z,0.00
2018-08-17T07:17:41.844Z,0.00
2018-08-17T07:18:41.800Z,0.00
2018-08-17T07:19:41.799Z,0.00
2018-08-17T07:20:41.748Z,0.00
2018-08-17T07:21:41.763Z,0.00
2018-08-17T07:22:41.717Z,0.00
2018-08-17T07:23:41.697Z,0.00
2018-08-17T07:24:41.650Z,0.00
2018-08-17T07:25:41.632Z,0.00
2018-08-17T07:26:41.618Z,0.00
2018-08-17T07:27:41.614Z,0.00
2018-08-17T07:28:41.571Z,0.00
2018-08-17T07:29:41.528Z,0.00
2018-08-17T07:30:41.522Z,0.00
2018-08-17T07:31:41.478Z,0.00
2018-08-17T07:32:41.472Z,0.00
2018-08-17T07:33:41.428Z,0.00
2018-08-17T07:34:41.424Z,0.00
2018-08-17T07:35:41.451Z,0.00
2018-08-17T07:36:41.371Z,0.00
2018-08-17T07:37:41.348Z,0.00
2018-08-17T07:38:41.329Z,0.00
2018-08-17T07:39:41.304Z,0.00
2018-08-17T07:40:41.278Z,0.00
2018-08-17T07:41:41.251Z,0.00
2018-08-17T07:42:41.227Z,0.00
2018-08-17T07:43:41.254Z,0.00
2018-08-17T07:44:41.174Z,0.00
2018-08-17T07:45:41.147Z,0.00
2018-08-17T07:46:41.126Z,0.00
2018-08-17T07:47:41.106Z,0.00
2018-08-17T07:48:41.080Z,0.00
2018-08-17T07:49:41.054Z,0.00
2018-08-17T07:50:41.028Z,0.00
2018-08-17T07:51:41.006Z,0.00
2018-08-17T07:52:40.975Z,0.00
2018-08-17T07:53:40.932Z,0.00
2018-08-17T07:54:40.924Z,0.00
2018-08-17T07:55:40.899Z,0.00
2018-08-17T07:56:40.881Z,0.00
2018-08-17T07:57:40.862Z,0.00
2018-08-17T07:58:40.833Z,0.00
2018-08-17T07:59:40.803Z,0.00
2018-08-17T08:00:40.788Z,0.00
2018-08-17T08:01:40.754Z,0.00
2018-08-17T08:02:40.727Z,0.00
2018-08-17T08:03:40.706Z,0.00
2018-08-17T08:04:40.686Z,0.00
2018-08-17T08:05:40.645Z,0.00
2018-08-17T08:06:40.632Z,0.00
2018-08-17T08:07:40.607Z,0.00
2018-08-17T08:08:40.564Z,0.00
2018-08-17T08:09:40.539Z,0.00
2018-08-17T08:10:40.530Z,0.00
2018-08-17T08:11:40.513Z,0.00
2018-08-17T08:12:40.465Z,0.00
2018-08-17T08:13:40.539Z,0.00
2018-08-17T08:14:40.484Z,0.00
2018-08-17T08:15:40.694Z,0.00
2018-08-17T08:16:40.379Z,0.00
2018-08-17T08:17:40.365Z,0.00
2018-08-17T08:18:40.331Z,0.00
2018-08-17T08:19:40.314Z,0.00
2018-08-17T08:20:40.269Z,0.00
2018-08-17T08:21:40.260Z,0.00
2018-08-17T08:22:40.216Z,0.00
2018-08-17T08:23:40.212Z,0.00
2018-08-17T08:24:40.200Z,0.00
2018-08-17T08:25:40.158Z,0.00
2018-08-17T08:26:40.124Z,0.00
2018-08-17T08:27:40.111Z,0.00
2018-08-17T08:28:40.090Z,0.00
2018-08-17T08:29:40.073Z,0.00
2018-08-17T08:30:40.037Z,0.00
2018-08-17T08:31:40.011Z,0.00
2018-08-17T08:32:39.988Z,0.00
2018-08-17T08:33:39.951Z,0.00
2018-08-17T08:34:39.942Z,0.00
2018-08-17T08:35:39.920Z,0.00
2018-08-17T08:36:39.898Z,0.00
2018-08-17T08:37:39.863Z,0.00
2018-08-17T08:38:39.838Z,0.00
2018-08-17T08:39:39.820Z,0.00
2018-08-17T08:40:39.790Z,0.00
2018-08-17T08:41:39.774Z,0.00
2018-08-17T08:42:39.746Z,0.00
2018-08-17T08:43:39.699Z,0.00
2018-08-17T08:44:39.701Z,0.00
2018-08-17T08:45:39.830Z,0.00
2018-08-17T08:46:39.639Z,0.00
2018-08-17T08:47:39.618Z,0.00
2018-08-17T08:48:39.593Z,0.00
2018-08-17T08:49:39.575Z,0.00
2018-08-17T08:50:39.545Z,0.00
2018-08-17T08:51:39.519Z,0.00
2018-08-17T08:52:39.482Z,0.00
2018-08-17T08:53:39.465Z,0.00
2018-08-17T08:54:39.450Z,0.00
2018-08-17T08:55:39.418Z,0.00
2018-08-17T08:56:39.397Z,0.00
2018-08-17T08:57:39.374Z,0.00
2018-08-17T08:58:39.346Z,0.00
2018-08-17T08:59:39.330Z,0.00
2018-08-17T09:00:39.305Z,0.00
2018-08-17T09:01:39.338Z,0.00
2018-08-17T09:02:39.255Z,0.00
2018-08-17T09:03:39.223Z,0.00
2018-08-17T09:04:39.201Z,0.00
2018-08-17T09:05:39.157Z,0.00
2018-08-17T09:06:39.148Z,0.00
2018-08-17T09:07:39.128Z,0.00
2018-08-17T09:08:39.103Z,0.00
2018-08-17T09:09:39.076Z,0.00
2018-08-17T09:10:39.049Z,0.00
2018-08-17T09:11:39.007Z,0.00
2018-08-17T09:12:39.004Z,4.00
2018-08-17T09:13:38.984Z,4.00
2018-08-17T09:14:38.950Z,4.00
2018-08-17T09:15:38.936Z,4.00
2018-08-17T09:16:38.901Z,4.00
2018-08-17T09:17:38.883Z,8.00
2018-08-17T09:18:38.860Z,12.00
2018-08-17T09:19:38.833Z,12.00
2018-08-17T09:20:38.799Z,16.00
2018-08-17T09:21:38.764Z,24.00
2018-08-17T09:22:38.756Z,28.00
2018-08-17T09:23:38.739Z,32.00
2018-08-17T09:24:38.714Z,36.00
2018-08-17T09:25:38.681Z,40.00
2018-08-17T09:26:38.657Z,44.00
2018-08-17T09:27:38.640Z,48.00
2018-08-17T09:28:38.610Z,56.00
2018-08-17T09:29:38.563Z,72.00
2018-08-17T09:30:38.560Z,84.00
2018-08-17T09:31:38.532Z,96.00
2018-08-17T09:32:38.511Z,112.00
2018-08-17T09:33:38.485Z,132.00
2018-08-17T09:34:38.469Z,140.00
2018-08-17T09:35:38.438Z,144.00
2018-08-17T09:36:38.388Z,156.00
2018-08-17T09:37:38.395Z,176.00
2018-08-17T09:38:38.343Z,184.00
2018-08-17T09:39:38.334Z,188.00
2018-08-17T09:40:38.308Z,220.00
2018-08-17T09:41:38.305Z,264.00
2018-08-17T09:42:38.259Z,336.00
2018-08-17T09:43:38.242Z,380.00
2018-08-17T09:44:38.222Z,408.00
2018-08-17T09:45:38.189Z,424.00
2018-08-17T09:46:38.165Z,460.00
2018-08-17T09:47:38.151Z,532.00
2018-08-17T09:48:38.117Z,568.00
2018-08-17T09:49:38.090Z,560.00
2018-08-17T09:50:38.072Z,496.00
2018-08-17T09:51:38.039Z,504.00
2018-08-17T09:52:38.017Z,508.00
2018-08-17T09:53:37.993Z,596.00
2018-08-17T09:54:37.952Z,648.00
2018-08-17T09:55:37.949Z,720.00
2018-08-17T09:56:37.919Z,892.00
2018-08-17T09:57:37.975Z,864.00
2018-08-17T09:58:37.872Z,828.00
2018-08-17T09:59:37.846Z,948.00
2018-08-17T10:00:37.825Z,912.00
2018-08-17T10:01:37.797Z,876.00
2018-08-17T10:02:37.777Z,892.00
2018-08-17T10:03:37.739Z,996.00
2018-08-17T10:04:37.725Z,1236.00
2018-08-17T10:05:37.700Z,1412.00
2018-08-17T10:06:37.678Z,1324.00
2018-08-17T10:07:37.638Z,1320.00
2018-08-17T10:08:37.614Z,1400.00
2018-08-17T10:09:37.601Z,1672.00
2018-08-17T10:10:37.577Z,2080.00
2018-08-17T10:11:37.535Z,2016.00
2018-08-17T10:12:37.525Z,1788.00
2018-08-17T10:13:37.504Z,2176.00
2018-08-17T10:14:37.477Z,2708.00
2018-08-17T10:15:37.454Z,3196.00
2018-08-17T10:16:37.436Z,2628.00
2018-08-17T10:17:37.391Z,2384.00
2018-08-17T10:18:37.387Z,2800.00
2018-08-17T10:19:37.364Z,2784.00
2018-08-17T10:20:37.327Z,2488.00
2018-08-17T10:21:37.552Z,2324.00
2018-08-17T10:22:37.287Z,2584.00
2018-08-17T10:23:37.265Z,2372.00
2018-08-17T10:24:37.245Z,2328.00
2018-08-17T10:25:37.218Z,3116.00
2018-08-17T10:26:37.190Z,3708.00
2018-08-17T10:27:37.165Z,3984.00
2018-08-17T10:28:37.136Z,4328.00
2018-08-17T10:29:37.113Z,5248.00
2018-08-17T10:30:37.095Z,5020.00
2018-08-17T10:31:37.063Z,4396.00
2018-08-17T10:32:37.037Z,3272.00
2018-08-17T10:33:37.017Z,2708.00
2018-08-17T10:34:36.998Z,2908.00
2018-08-17T10:35:36.961Z,3364.00
2018-08-17T10:36:36.943Z,3616.00
2018-08-17T10:37:36.912Z,3960.00
2018-08-17T10:38:36.873Z,4344.00
2018-08-17T10:39:36.867Z,5284.00
2018-08-17T10:40:36.851Z,5180.00
2018-08-17T10:41:36.817Z,4428.00
2018-08-17T10:42:36.789Z,4492.00
2018-08-17T10:43:36.772Z,5904.00
2018-08-17T10:44:36.727Z,5100.00
2018-08-17T10:45:36.717Z,4928.00
2018-08-17T10:46:36.703Z,5168.00
2018-08-17T10:47:36.681Z,5284.00
2018-08-17T10:48:36.664Z,5596.00
2018-08-17T10:49:36.626Z,5648.00
2018-08-17T10:50:36.605Z,5488.00
2018-08-17T10:51:36.573Z,4848.00
2018-08-17T10:52:36.535Z,4708.00
2018-08-17T10:53:36.507Z,5488.00
2018-08-17T10:54:36.502Z,5424.00
2018-08-17T10:55:36.523Z,5292.00
2018-08-17T10:56:36.454Z,5344.00
2018-08-17T10:57:36.430Z,5588.00
2018-08-17T10:58:36.402Z,6644.00
2018-08-17T10:59:36.384Z,8104.00
2018-08-17T11:00:36.358Z,8244.00
2018-08-17T11:01:36.335Z,7772.00
2018-08-17T11:02:36.312Z,8148.00
2018-08-17T11:03:36.284Z,7876.00
2018-08-17T11:04:36.263Z,8696.00
2018-08-17T11:05:36.214Z,8512.00
2018-08-17T11:06:36.208Z,7704.00
2018-08-17T11:07:36.185Z,7228.00
2018-08-17T11:08:36.160Z,7384.00
2018-08-17T11:09:36.135Z,6948.00
2018-08-17T11:10:36.113Z,6700.00
2018-08-17T11:11:36.091Z,6772.00
2018-08-17T11:12:36.053Z,6648.00
2018-08-17T11:13:36.074Z,6236.00
2018-08-17T11:14:35.999Z,5704.00
2018-08-17T11:15:35.994Z,5820.00
2018-08-17T11:16:35.974Z,6212.00
2018-08-17T11:17:35.944Z,5724.00
2018-08-17T11:18:35.925Z,4616.00
2018-08-17T11:19:35.901Z,4716.00
2018-08-17T11:20:35.877Z,4860.00
2018-08-17T11:21:35.852Z,5456.00
2018-08-17T11:22:35.827Z,6780.00
2018-08-17T11:23:35.806Z,7540.00
2018-08-17T11:24:35.785Z,8932.00
2018-08-17T11:25:35.741Z,10244.00
2018-08-17T11:26:35.758Z,8780.00
2018-08-17T11:27:35.715Z,7320.00
2018-08-17T11:28:35.667Z,8656.00
2018-08-17T11:29:35.645Z,8944.00
2018-08-17T11:30:35.642Z,9620.00
2018-08-17T11:31:35.622Z,10100.00
2018-08-17T11:32:35.583Z,10344.00
2018-08-17T11:33:35.575Z,9456.00
2018-08-17T11:34:35.535Z,9684.00
2018-08-17T11:35:35.512Z,10316.00
2018-08-17T11:36:35.539Z,10224.00
2018-08-17T11:37:35.476Z,9424.00
2018-08-17T11:38:35.466Z,10028.00
2018-08-17T11:39:35.433Z,10224.00
2018-08-17T11:40:35.389Z,12224.00
2018-08-17T11:41:35.387Z,12588.00
2018-08-17T11:42:35.359Z,11384.00
2018-08-17T11:43:35.338Z,12160.00
2018-08-17T11:44:35.316Z,11648.00
2018-08-17T11:45:35.291Z,11416.00
2018-08-17T11:46:35.267Z,11448.00
2018-08-17T11:47:35.241Z,11956.00
2018-08-17T11:48:35.226Z,11592.00
2018-08-17T11:49:35.197Z,10568.00
2018-08-17T11:50:35.174Z,8708.00
2018-08-17T11:51:35.148Z,8228.00
2018-08-17T11:52:35.133Z,9072.00
2018-08-17T11:53:35.174Z,10872.00
2018-08-17T11:54:35.087Z,12996.00
2018-08-17T11:55:35.059Z,11936.00
2018-08-17T11:56:35.038Z,10056.00
2018-08-17T11:57:35.012Z,9084.00
2018-08-17T11:58:34.990Z,8360.00
2018-08-17T11:59:34.964Z,7860.00
2018-08-17T12:00:35.001Z,7656.00
2018-08-17T12:01:34.962Z,8112.00
2018-08-17T12:02:34.898Z,7932.00
2018-08-17T12:03:34.881Z,7480.00
2018-08-17T12:04:34.853Z,7496.00
2018-08-17T12:05:34.826Z,7648.00
2018-08-17T12:06:34.799Z,9244.00
2018-08-17T12:07:34.780Z,10472.00
2018-08-17T12:08:34.758Z,10180.00
2018-08-17T12:09:34.740Z,9688.00
2018-08-17T12:10:34.720Z,11396.00
2018-08-17T12:11:34.694Z,10920.00
2018-08-17T12:12:34.662Z,9844.00
2018-08-17T12:13:34.642Z,9444.00
2018-08-17T12:14:34.621Z,9040.00
2018-08-17T12:15:34.576Z,9192.00
2018-08-17T12:16:34.551Z,9632.00
2018-08-17T12:17:34.529Z,10456.00
2018-08-17T12:18:34.583Z,10388.00
2018-08-17T12:19:34.500Z,9760.00
2018-08-17T12:20:34.483Z,8880.00
2018-08-17T12:21:34.453Z,9092.00
2018-08-17T12:22:34.432Z,11440.00
2018-08-17T12:23:34.410Z,14052.00
2018-08-17T12:24:34.515Z,14644.00
2018-08-17T12:25:34.363Z,12884.00
2018-08-17T12:26:34.335Z,10976.00
2018-08-17T12:27:34.299Z,10676.00
2018-08-17T12:28:34.287Z,10756.00
2018-08-17T12:29:34.267Z,11092.00
2018-08-17T12:30:34.244Z,10684.00
2018-08-17T12:31:34.218Z,11892.00
2018-08-17T12:32:34.201Z,14036.00
2018-08-17T12:33:34.162Z,14912.00
2018-08-17T12:34:34.150Z,15656.00
2018-08-17T12:35:34.117Z,15384.00
2018-08-17T12:36:34.114Z,13788.00
2018-08-17T12:37:34.081Z,12444.00
2018-08-17T12:38:34.056Z,12016.00
2018-08-17T12:39:34.020Z,11524.00
2018-08-17T12:40:34.015Z,10608.00
2018-08-17T12:41:33.969Z,10660.00
2018-08-17T12:42:33.964Z,10368.00
2018-08-17T12:43:33.949Z,10700.00
2018-08-17T12:46:17.630Z,11060.00
2018-08-17T12:47:17.610Z,9888.00
2018-08-17T12:48:17.570Z,9208.00
2018-08-17T12:49:17.580Z,9300.00
2018-08-17T12:50:17.541Z,9980.00
2018-08-17T12:51:17.516Z,9704.00
2018-08-17T12:52:17.516Z,10272.00
2018-08-17T12:53:17.468Z,11620.00
2018-08-17T12:54:17.435Z,12184.00
2018-08-17T12:55:17.428Z,11800.00
2018-08-17T12:56:17.405Z,10672.00
2018-08-17T12:57:17.376Z,9240.00
2018-08-17T12:58:17.356Z,9076.00